Relevés horaires Beauvechain (Belgique)


Relevés horaires à Beauvechain - Samedi 01 Oct. 2016
Heure UTC1 Température [°C] Vent [km/h] Hum. [%] Pres.4 [hPa] Visi. [Km] Nébu. [octa] Préc.5 [mm] Cond.
2m. Res. Ros. Dir.2 Vit. Moy. Raf.3
23:00 11.8 11.2 8.5 S 7.4 -- -- 80 1010(0.1/3h) 20 -- -- --
22:00 11.8 11.6 8.9 SO 5.6 -- -- 82 1009.8(0.4/3h) 20 -- -- --
21:00 12.1 12.1 9.7 SSO 3.7 -- -- 85 1009.8(1.3/3h) 20 -- -- NA
20:00 12.5 12.5 9.8 SO 3.7 -- -- 84 1009.7(1.3/3h) 20 -- -- NA
19:00 12.5 12.4 9.9 OSO 5.6 -- -- 84 1009.5(1.5/3h) 20 -- -- NA
18:00 13.1 12.8 11.1 S 7.4 -- -- 88 1008.3(0.4/3h) 20 -- -- --
17:00 13.6 12.8 10.8 SSO 11.1 -- -- 83 1008.3(0.2/3h) 20 -- -- --
16:00 16.0 16.0 10.0 SO 3.7 -- -- 68 1007.7(-0.4/3h) 20 -- -- --
15:00 16.5 16.5 9.4 OSO 7.4 -- -- 63 1007.7(-0.8/3h) 20 -- -- --
14:00 17.0 17.0 8.5 SO 9.3 -- -- 57 1007.8(-0.8/3h) 20 -- -- --
13:00 17.0 17.0 9.4 SO 9.3 -- -- 61 1008.2(-0.9/3h) 20 -- -- --
12:00 17.5 17.5 10.9 SO 9.3 -- -- 65 1008.5(-0.5/3h) 20 -- -- NA
11:00 15.2 15.2 11.2 SSO 7.4 -- -- 77 1008.8(-0.3/3h) 20 -- -- --
10:00 13.6 13.6 11.6 OSO 3.7 -- -- 88 1009.2(0.2/3h) 15 -- -- NA
09:00 13.7 13.7 11.3 SSO 5.6 -- -- 85 1009.2(0.1/3h) 20 -- -- --
08:00 13.0 13.0 11.3 S 3.7 -- -- 89 1009.2(-0.3/3h) 20 -- -- --
07:00 12.3 12.3 11.1 SE 3.7 -- -- 92 1009.1(-0.7/3h) 20 -- -- --
06:00 12.0 12.0 10.9 NNO 1.9 -- -- 93 1009.2(-1.0/3h) 20 -- 0.3/12h
NA
05:00 12.1 12.1 11.0 NNO 1.9 -- -- 93 1009.7(-0.9/3h) 20 -- -- --
04:00 12.1 12.1 11.0 NNO 1.9 -- -- 93 1010(-1.5/3h) 19 -- -- --
03:00 12.1 12.1 10.8 NNO 1.9 -- -- 92 1010.2(-1.7/3h) 20 -- -- NA
02:00 12.3 12.3 10.6 NNO 1.9 -- -- 89 1010.7(-2.0/3h) 20 -- -- --
01:00 12.3 12.3 10.7 S 3.7 -- -- 90 1011.5(-1.6/3h) 20 -- -- NA
00:00 12.6 12.6 10.5 S 3.7 -- -- 87 1012.1(-1.6/3h) 20 -- 0.2/6h
NA

1 Coordinated Universal Time. Actuellement il est 00:00 locale et 22:00 UTC.

2 Le vent souffle depuis la direction indiquée vers la direction oposée.

3 Les rafales max. sont disponible 40 min après l'heure du relevé.

4 Pour les stations d'altitude (plus de 600m) le géopotentiel du niveau le plus proche de la pression obligatoire est indiqué.

5 Les stations disposant d'un diffuseur peuvent indiquer "trace". Cela signifie que des précipitations ont touchés le sol mais que la quantité est inférieure à 0.1 mm.

Récapitulatif de la journée
Température [°C] Vent [km/h] Ensoleillement4 [h] Precipitations totale5 [mm] Pression [Hpa]
Min1 Max.2 Moy.3 Max. Min Max.
11.9 18.4 0 -- 0 h 0 min 0 1007.7 1012.1

1 Température minimale relevée entre 18:00 UTC la veille et 18:00 UTC le jour donné.

2 Température maximale relevée entre 06:00 UTC le jour donné et 06:00 UTC le lendemain.

3 Vent moyen de la journée basé sur les relevés horaires.

4 Ensoleillement en heures relevé entre 06:00 UTC la veille et 06:00 UTC le jour donné.

5 Précipitations totales tombées entre 06:00 UTC la jour donné et 06:00 UTC le lendemain.

Graphiques horaires